Time;durP1;ratioP1;P1;durP2;ratioP2;P2;SDS_P1;SDS_P2;PMS_P1;PMS_P2;Temp;Humidity;BMP_temperature;BMP_pressure;BME280_temperature;BME280_humidity;BME280_pressure;Samples;Min_cycle;Max_cycle;Signal;HPM_P1;HPM_P2
2020/12/04 00:00:41;;;;;;;33.00;19.00;;;1.10;99.90;;;;;;5133395;28;20444;-61
2020/12/04 07:13:23;;;;;;;25.20;15.60;;;2.40;99.90;;;;;;5466032;23;20488;-61
2020/12/04 07:15:59;;;;;;;21.20;13.10;;;2.50;99.90;;;;;;5058401;28;20440;-61
2020/12/04 07:18:30;;;;;;;27.00;14.00;;;2.60;99.90;;;;;;5058318;28;20456;-61
2020/12/04 07:20:56;;;;;;;27.77;15.60;;;2.60;99.90;;;;;;5058338;28;20423;-61
2020/12/04 07:23:23;;;;;;;24.67;14.87;;;2.60;99.90;;;;;;5057610;28;20424;-61
2020/12/04 07:25:49;;;;;;;27.87;15.47;;;2.70;99.90;;;;;;5058477;28;20480;-62
2020/12/04 07:28:16;;;;;;;27.53;15.33;;;2.60;99.90;;;;;;5057452;28;20452;-61
2020/12/04 07:30:43;;;;;;;29.00;15.33;;;2.60;99.90;;;;;;5051937;28;20456;-61
2020/12/04 07:35:45;;;;;;;27.17;16.70;;;2.60;99.90;;;;;;5229212;22;20487;-62
2020/12/04 07:38:12;;;;;;;29.43;15.03;;;2.60;99.90;;;;;;5019081;28;20457;-62
2020/12/04 07:40:40;;;;;;;35.60;18.40;;;2.70;99.90;;;;;;5025849;28;20476;-61
2020/12/04 07:43:11;;;;;;;27.87;16.80;;;2.70;99.90;;;;;;5027077;28;20441;-62
2020/12/04 07:45:37;;;;;;;26.90;16.30;;;2.70;99.90;;;;;;5030821;28;20492;-62
2020/12/04 07:48:07;;;;;;;27.10;16.70;;;2.70;99.90;;;;;;5022631;28;20491;-61
2020/12/04 07:50:34;;;;;;;24.57;14.50;;;2.80;99.90;;;;;;5014461;28;20445;-61
2020/12/04 07:53:01;;;;;;;25.53;15.93;;;2.80;99.90;;;;;;5033963;28;20492;-61
2020/12/04 07:55:38;;;;;;;30.57;16.17;;;2.80;99.90;;;;;;5016268;28;20541;-61
2020/12/04 07:58:12;;;;;;;34.43;18.40;;;2.80;99.90;;;;;;5023573;28;20449;-62
2020/12/04 08:00:38;;;;;;;34.80;17.97;;;2.80;99.90;;;;;;5025186;28;20480;-62
2020/12/04 08:03:12;;;;;;;36.97;18.83;;;2.90;99.90;;;;;;5033083;28;20486;-62
2020/12/04 08:05:39;;;;;;;26.77;16.07;;;2.90;99.90;;;;;;5034227;28;20545;-61
2020/12/04 08:08:06;;;;;;;30.63;17.27;;;3.00;99.90;;;;;;5033823;28;20445;-61
2020/12/04 08:10:35;;;;;;;30.70;14.43;;;3.00;99.90;;;;;;5024775;28;20472;-61
2020/12/04 08:13:05;;;;;;;34.27;16.23;;;3.00;99.90;;;;;;5025973;28;20467;-62
2020/12/04 08:15:31;;;;;;;25.67;14.47;;;3.00;99.90;;;;;;5023830;28;20481;-62
2020/12/04 08:18:01;;;;;;;26.90;14.73;;;3.10;99.90;;;;;;5023742;28;20437;-63
2020/12/04 08:20:29;;;;;;;21.80;12.93;;;3.20;99.90;;;;;;5024706;28;20910;-62
2020/12/04 08:22:55;;;;;;;28.03;15.57;;;3.30;99.90;;;;;;5024557;28;20457;-59
2020/12/04 08:25:24;;;;;;;24.60;15.13;;;3.30;99.90;;;;;;5023886;28;20564;-59
2020/12/04 08:27:50;;;;;;;21.80;13.30;;;3.40;99.90;;;;;;5024770;28;20448;-57
2020/12/04 08:30:19;;;;;;;26.17;15.23;;;3.50;99.90;;;;;;5025050;28;20453;-57
2020/12/04 08:32:46;;;;;;;31.33;15.10;;;3.60;99.90;;;;;;5025292;28;20963;-58
2020/12/04 08:35:15;;;;;;;28.30;13.87;;;3.70;99.90;;;;;;5023747;28;20468;-59
2020/12/04 08:37:43;;;;;;;20.83;12.50;;;3.70;99.90;;;;;;5023352;28;20468;-59
2020/12/04 08:40:22;;;;;;;31.83;15.00;;;3.90;99.90;;;;;;5024016;28;20515;-58
2020/12/04 08:42:48;;;;;;;28.07;15.10;;;3.90;99.90;;;;;;5022153;28;20468;-59
2020/12/04 08:45:15;;;;;;;23.37;12.70;;;4.00;99.90;;;;;;5022101;28;20507;-59
2020/12/04 08:47:43;;;;;;;26.77;12.77;;;4.00;99.90;;;;;;5022725;28;20444;-59
2020/12/04 08:50:16;;;;;;;23.17;12.90;;;4.10;99.90;;;;;;5024195;28;20441;-60
2020/12/04 08:52:49;;;;;;;23.63;13.33;;;4.10;99.90;;;;;;5023080;28;20930;-57
2020/12/04 08:55:18;;;;;;;22.47;14.23;;;4.30;99.90;;;;;;5021076;28;20476;-55
2020/12/04 08:57:45;;;;;;;24.93;14.40;;;4.30;99.90;;;;;;5022504;28;20463;-56
2020/12/04 09:00:15;;;;;;;24.73;13.87;;;4.40;99.90;;;;;;5021033;28;20466;-59
2020/12/04 09:02:42;;;;;;;20.47;13.77;;;4.50;99.90;;;;;;5021706;28;20437;-59
2020/12/04 09:05:11;;;;;;;25.80;14.73;;;4.60;99.90;;;;;;5019682;28;20496;-58
2020/12/04 09:07:38;;;;;;;22.23;13.47;;;4.60;99.90;;;;;;5019304;28;20449;-58
2020/12/04 09:10:07;;;;;;;23.03;12.53;;;4.70;99.90;;;;;;5019808;28;20984;-61
2020/12/04 09:12:35;;;;;;;20.97;12.90;;;4.80;99.90;;;;;;5019128;28;20580;-59
2020/12/04 09:15:02;;;;;;;20.70;12.70;;;4.90;99.90;;;;;;5018736;28;20594;-62
2020/12/04 09:17:28;;;;;;;22.90;14.70;;;5.00;99.90;;;;;;5017659;28;20433;-58
2020/12/04 09:19:56;;;;;;;20.40;12.80;;;5.00;99.90;;;;;;5019521;28;20531;-60
2020/12/04 09:22:23;;;;;;;20.77;12.90;;;5.10;99.90;;;;;;5018406;28;20457;-61
2020/12/04 09:24:49;;;;;;;22.23;13.33;;;5.10;99.90;;;;;;5020852;28;20451;-62
2020/12/04 09:27:17;;;;;;;21.13;13.20;;;5.10;99.90;;;;;;5021923;28;20514;-63
2020/12/04 09:29:44;;;;;;;24.87;13.30;;;5.10;99.90;;;;;;5022348;28;20813;-64
2020/12/04 09:32:13;;;;;;;28.90;12.70;;;5.10;99.90;;;;;;5021283;28;20536;-64
2020/12/04 09:34:41;;;;;;;24.37;13.27;;;5.10;99.90;;;;;;5021151;28;20475;-59
2020/12/04 09:37:24;;;;;;;22.00;13.70;;;5.20;99.90;;;;;;5024981;28;20457;-62
2020/12/04 09:39:53;;;;;;;23.00;14.53;;;5.10;99.90;;;;;;5022275;28;20447;-65
2020/12/04 09:42:25;;;;;;;20.97;11.90;;;5.10;99.90;;;;;;5021213;28;20784;-62
2020/12/04 09:44:55;;;;;;;20.90;12.60;;;5.20;99.90;;;;;;5020793;28;20449;-62
2020/12/04 09:47:24;;;;;;;23.57;13.27;;;5.30;99.90;;;;;;5021087;28;20495;-62
2020/12/04 09:49:53;;;;;;;19.90;13.70;;;5.20;99.90;;;;;;5021297;28;20464;-63
2020/12/04 09:52:21;;;;;;;22.93;13.00;;;5.20;99.90;;;;;;5020141;28;20469;-62
2020/12/04 09:54:49;;;;;;;18.70;12.23;;;5.20;99.90;;;;;;5021510;28;20472;-63
2020/12/04 09:57:17;;;;;;;20.87;12.77;;;5.20;99.90;;;;;;5021052;28;20453;-62
2020/12/04 09:59:45;;;;;;;20.53;13.00;;;5.20;99.90;;;;;;5021239;28;20476;-64
2020/12/04 10:02:12;;;;;;;20.67;12.90;;;5.20;99.90;;;;;;5021429;28;20441;-64
2020/12/04 10:04:39;;;;;;;22.30;14.70;;;5.10;99.90;;;;;;5021213;28;20829;-63
2020/12/04 10:07:06;;;;;;;20.60;12.80;;;5.10;99.90;;;;;;5016068;28;20975;-63
2020/12/04 10:09:33;;;;;;;24.03;12.70;;;5.20;99.90;;;;;;5017481;28;20786;-62
2020/12/04 10:12:00;;;;;;;20.97;14.47;;;5.10;99.90;;;;;;5021969;28;20441;-62
2020/12/04 10:14:27;;;;;;;23.77;13.37;;;5.20;99.90;;;;;;5030021;28;20457;-63
2020/12/04 10:16:55;;;;;;;23.90;15.20;;;5.20;99.90;;;;;;5022536;28;20873;-62
2020/12/04 10:19:22;;;;;;;26.83;15.00;;;5.20;99.90;;;;;;5020887;28;20453;-62
2020/12/04 10:21:55;;;;;;;22.00;12.10;;;5.20;99.90;;;;;;5021135;28;20445;-63
2020/12/04 10:24:22;;;;;;;23.63;14.23;;;5.10;99.90;;;;;;5017486;28;20475;-62
2020/12/04 10:26:51;;;;;;;21.93;13.47;;;5.10;99.90;;;;;;5021327;28;20511;-62
2020/12/04 10:29:18;;;;;;;24.83;13.83;;;5.10;99.90;;;;;;5018680;28;20492;-62
2020/12/04 10:31:45;;;;;;;24.23;14.23;;;5.10;99.90;;;;;;5022791;28;20449;-63
2020/12/04 10:34:13;;;;;;;23.53;15.47;;;5.10;99.90;;;;;;5030549;28;20474;-65
2020/12/04 10:36:40;;;;;;;21.90;13.27;;;5.20;99.90;;;;;;5028860;28;20842;-63
2020/12/04 10:39:09;;;;;;;19.10;12.57;;;5.20;99.90;;;;;;5029793;28;20438;-64
2020/12/04 10:41:37;;;;;;;21.83;12.73;;;5.30;99.90;;;;;;5023670;28;20445;-62
2020/12/04 10:44:07;;;;;;;21.60;13.00;;;5.30;99.90;;;;;;5029354;28;20926;-63
2020/12/04 10:46:35;;;;;;;21.77;13.97;;;5.30;99.90;;;;;;5028777;28;20481;-63
2020/12/04 10:49:02;;;;;;;20.73;13.20;;;5.40;99.90;;;;;;5028769;28;20441;-64
2020/12/04 10:51:30;;;;;;;20.67;12.97;;;5.40;99.90;;;;;;5027591;28;20472;-64
2020/12/04 10:53:57;;;;;;;25.73;14.67;;;5.50;99.90;;;;;;5028448;28;20453;-63
2020/12/04 10:56:24;;;;;;;21.00;14.10;;;5.60;99.90;;;;;;5028744;28;20472;-64
2020/12/04 10:58:53;;;;;;;19.07;12.10;;;5.70;99.90;;;;;;5028079;28;20485;-64
2020/12/04 11:01:26;;;;;;;22.07;13.33;;;5.60;99.90;;;;;;5027694;28;20453;-63
2020/12/04 11:06:39;;;;;;;18.13;11.73;;;5.70;99.90;;;;;;5026867;28;20507;-63
2020/12/04 11:09:06;;;;;;;26.43;14.50;;;5.80;99.90;;;;;;5024698;28;20457;-64
2020/12/04 11:11:32;;;;;;;25.70;13.90;;;5.90;99.90;;;;;;5025084;28;20492;-62
2020/12/04 11:13:59;;;;;;;20.23;14.00;;;6.00;99.90;;;;;;5021405;28;20957;-62
2020/12/04 11:16:26;;;;;;;19.53;12.23;;;6.00;99.90;;;;;;5020899;28;21571;-63
2020/12/04 11:18:53;;;;;;;24.27;14.07;;;6.10;99.90;;;;;;5025229;28;20945;-62
2020/12/04 11:21:20;;;;;;;19.90;12.10;;;6.10;99.90;;;;;;5019208;28;20457;-62
2020/12/04 11:23:47;;;;;;;17.40;11.30;;;6.10;99.90;;;;;;5021663;28;20785;-63
2020/12/04 11:26:16;;;;;;;21.90;13.83;;;6.10;99.90;;;;;;5021062;28;20520;-62
2020/12/04 11:28:42;;;;;;;20.00;12.50;;;6.10;99.90;;;;;;5023186;28;20465;-62
2020/12/04 11:31:09;;;;;;;23.33;14.50;;;6.10;99.90;;;;;;5027401;28;20451;-62
2020/12/04 11:33:36;;;;;;;24.50;13.60;;;6.10;99.90;;;;;;5026595;28;20433;-63
2020/12/04 11:36:03;;;;;;;25.57;14.07;;;6.20;99.90;;;;;;5023407;28;20515;-64
2020/12/04 11:38:29;;;;;;;24.80;13.93;;;6.20;99.90;;;;;;5025146;28;20453;-66
2020/12/04 11:40:57;;;;;;;21.60;12.87;;;6.20;99.90;;;;;;5025947;28;20977;-66
2020/12/04 11:43:23;;;;;;;19.13;12.20;;;6.30;99.90;;;;;;5022330;28;20456;-67
2020/12/04 11:45:50;;;;;;;24.80;15.70;;;6.30;99.90;;;;;;5014025;28;20488;-66
2020/12/04 11:48:16;;;;;;;25.57;13.40;;;6.30;99.90;;;;;;5020199;28;20437;-65
2020/12/04 11:50:43;;;;;;;20.80;13.40;;;6.60;99.90;;;;;;5025639;28;20905;-67
2020/12/04 11:53:10;;;;;;;24.97;12.90;;;6.70;99.90;;;;;;5022269;28;20457;-65
2020/12/04 11:55:36;;;;;;;19.30;12.80;;;6.70;99.90;;;;;;5024811;28;20438;-65
2020/12/04 11:58:04;;;;;;;20.90;12.30;;;6.70;99.90;;;;;;5021666;28;20519;-66
2020/12/04 12:00:31;;;;;;;26.53;14.70;;;6.70;99.90;;;;;;5013084;28;20480;-63
2020/12/04 12:02:57;;;;;;;19.03;11.93;;;6.80;99.90;;;;;;5019980;28;20773;-65
2020/12/04 12:05:27;;;;;;;26.37;14.57;;;6.80;99.90;;;;;;5025095;28;20828;-64
2020/12/04 12:07:53;;;;;;;17.03;11.30;;;6.80;99.90;;;;;;5025508;28;20536;-63
2020/12/04 12:10:20;;;;;;;17.63;10.67;;;6.80;99.90;;;;;;5024020;28;20499;-65
2020/12/04 12:12:47;;;;;;;18.43;11.70;;;6.60;99.90;;;;;;5023505;28;20564;-63
2020/12/04 12:15:14;;;;;;;21.07;11.50;;;6.60;99.90;;;;;;5021728;28;20433;-65
2020/12/04 12:17:41;;;;;;;16.67;11.37;;;6.60;99.90;;;;;;5021110;28;20442;-65
2020/12/04 12:20:07;;;;;;;18.83;13.07;;;6.60;99.90;;;;;;5016358;28;20437;-64
2020/12/04 12:22:34;;;;;;;16.80;12.17;;;6.60;99.90;;;;;;5015817;28;20465;-64
2020/12/04 12:25:01;;;;;;;20.63;12.53;;;6.60;99.90;;;;;;5018217;28;20460;-66
2020/12/04 12:27:27;;;;;;;15.13;10.33;;;6.60;99.90;;;;;;5020837;28;20480;-67
2020/12/04 12:29:57;;;;;;;24.00;12.30;;;6.60;99.90;;;;;;5021011;28;20543;-66
2020/12/04 12:32:24;;;;;;;19.53;12.73;;;6.60;99.90;;;;;;5019390;28;20453;-67
2020/12/04 12:35:01;;;;;;;22.57;13.70;;;6.70;99.90;;;;;;5018169;28;20473;-66
2020/12/04 12:37:30;;;;;;;18.30;11.97;;;6.70;99.90;;;;;;5018036;28;20457;-67
2020/12/04 12:39:57;;;;;;;24.10;13.43;;;6.80;99.90;;;;;;5017867;28;20457;-66
2020/12/04 12:42:24;;;;;;;22.57;14.03;;;6.90;99.90;;;;;;5016807;28;20456;-66
2020/12/04 12:44:51;;;;;;;20.03;12.77;;;7.00;99.90;;;;;;5013884;28;20563;-64
2020/12/04 12:47:17;;;;;;;18.03;12.63;;;7.00;99.90;;;;;;5016047;28;20805;-64
2020/12/04 12:49:45;;;;;;;20.87;12.47;;;6.90;99.90;;;;;;5017376;28;20456;-64
2020/12/04 12:52:12;;;;;;;20.87;13.70;;;6.80;99.90;;;;;;5016754;28;20453;-64
2020/12/04 12:54:39;;;;;;;20.00;11.60;;;6.70;99.90;;;;;;5016749;28;20444;-62
2020/12/04 12:57:06;;;;;;;20.43;11.90;;;6.50;99.90;;;;;;5016680;28;20726;-63
2020/12/04 12:59:33;;;;;;;19.33;13.20;;;6.30;99.90;;;;;;5016288;28;20475;-63
2020/12/04 13:02:00;;;;;;;25.03;13.97;;;6.20;99.90;;;;;;5021473;28;20762;-62
2020/12/04 13:04:27;;;;;;;23.93;13.67;;;6.10;99.90;;;;;;5013009;28;20452;-66
2020/12/04 13:06:55;;;;;;;20.97;13.00;;;6.10;99.90;;;;;;5011635;28;20503;-66
2020/12/04 13:09:22;;;;;;;27.50;14.83;;;6.20;99.90;;;;;;5019598;28;20443;-67
2020/12/04 13:11:50;;;;;;;17.13;11.47;;;6.20;99.90;;;;;;5019320;28;20446;-65
2020/12/04 13:14:17;;;;;;;21.80;13.17;;;6.20;99.90;;;;;;5017605;28;20445;-63
2020/12/04 13:16:44;;;;;;;16.87;11.03;;;6.20;99.90;;;;;;5021160;28;21070;-63
2020/12/04 13:19:14;;;;;;;20.37;12.80;;;6.20;99.90;;;;;;5019937;28;20456;-64
2020/12/04 13:21:57;;;;;;;20.10;13.43;;;6.20;99.90;;;;;;5026599;28;20468;-65
2020/12/04 13:24:26;;;;;;;19.03;12.93;;;6.20;99.90;;;;;;5028505;28;20456;-65
2020/12/04 13:26:54;;;;;;;24.00;13.77;;;6.30;99.90;;;;;;5027825;28;20485;-65
2020/12/04 13:29:20;;;;;;;23.43;14.70;;;6.20;99.90;;;;;;5026269;28;20904;-65
2020/12/04 13:31:50;;;;;;;24.13;15.20;;;6.20;99.90;;;;;;5025922;28;20453;-65
2020/12/04 13:34:17;;;;;;;44.73;19.37;;;6.20;99.90;;;;;;5023038;28;20476;-66
2020/12/04 13:36:44;;;;;;;19.10;13.40;;;6.30;99.90;;;;;;5026240;28;20457;-65
2020/12/04 13:39:11;;;;;;;21.27;12.97;;;6.30;99.90;;;;;;5023114;28;20448;-65
2020/12/04 13:41:39;;;;;;;22.67;14.47;;;6.30;99.90;;;;;;5025978;28;20444;-64
2020/12/04 13:44:06;;;;;;;21.63;13.70;;;6.30;99.90;;;;;;5026481;28;20451;-64
2020/12/04 13:46:32;;;;;;;22.47;12.57;;;6.30;99.90;;;;;;5027727;28;21009;-65
2020/12/04 13:48:59;;;;;;;19.97;12.97;;;6.30;99.90;;;;;;5027082;28;20444;-64
2020/12/04 13:51:26;;;;;;;20.13;15.30;;;6.30;99.90;;;;;;5018616;28;21620;-64
2020/12/04 13:53:53;;;;;;;16.83;11.60;;;6.30;99.90;;;;;;5024921;28;20457;-65
2020/12/04 13:56:20;;;;;;;21.57;14.63;;;6.30;99.90;;;;;;5026286;28;20433;-65
2020/12/04 13:58:47;;;;;;;23.40;14.80;;;6.20;99.90;;;;;;5017632;28;20480;-64
2020/12/04 14:01:19;;;;;;;21.80;12.70;;;6.20;99.90;;;;;;5022399;28;20448;-64
2020/12/04 14:03:47;;;;;;;21.33;12.10;;;6.20;99.90;;;;;;5026518;28;20461;-62
2020/12/04 14:06:14;;;;;;;25.97;13.57;;;6.20;99.90;;;;;;5027029;28;20512;-63
2020/12/04 14:08:41;;;;;;;22.23;14.33;;;6.20;99.90;;;;;;5026960;28;20453;-63
2020/12/04 14:11:08;;;;;;;21.53;12.30;;;6.20;99.90;;;;;;5025312;28;20997;-61
2020/12/04 14:13:34;;;;;;;24.03;11.87;;;6.20;99.90;;;;;;5025977;28;20437;-62
2020/12/04 14:16:03;;;;;;;20.70;11.50;;;6.20;99.90;;;;;;5026014;28;20445;-63
2020/12/04 14:18:30;;;;;;;23.23;12.50;;;6.30;99.90;;;;;;5027366;28;20495;-62
2020/12/04 14:20:57;;;;;;;19.40;13.93;;;6.30;99.90;;;;;;5026695;28;20449;-62
2020/12/04 14:23:23;;;;;;;23.83;12.57;;;6.30;99.90;;;;;;5025200;28;20512;-63
2020/12/04 14:25:50;;;;;;;19.90;12.20;;;6.20;99.90;;;;;;5025851;28;20441;-62
2020/12/04 14:28:17;;;;;;;22.70;13.07;;;6.20;99.90;;;;;;5025841;28;20492;-63
2020/12/04 14:30:43;;;;;;;23.20;12.37;;;6.20;99.90;;;;;;5025227;28;20465;-62
2020/12/04 14:33:11;;;;;;;20.00;12.87;;;6.20;99.90;;;;;;5025029;28;20451;-63
2020/12/04 14:35:38;;;;;;;21.30;12.40;;;6.10;99.90;;;;;;5026261;28;20527;-63
2020/12/04 14:38:05;;;;;;;21.33;13.80;;;6.10;99.90;;;;;;5025827;28;20449;-64
2020/12/04 14:40:32;;;;;;;25.97;15.20;;;6.10;99.90;;;;;;5027283;28;20472;-64
2020/12/04 14:43:03;;;;;;;25.00;12.93;;;6.00;99.90;;;;;;5025915;28;20461;-62
2020/12/04 14:45:30;;;;;;;21.20;12.97;;;6.00;99.90;;;;;;5023441;28;20485;-64
2020/12/04 14:47:57;;;;;;;19.03;12.13;;;6.00;99.90;;;;;;5026392;28;20481;-63
2020/12/04 14:50:24;;;;;;;20.63;13.00;;;5.90;99.90;;;;;;5026191;28;20461;-62
2020/12/04 14:52:51;;;;;;;20.90;12.40;;;5.90;99.90;;;;;;5025518;28;20499;-63
2020/12/04 14:55:18;;;;;;;21.67;13.37;;;5.90;99.90;;;;;;5025364;28;20437;-62
2020/12/04 14:57:45;;;;;;;19.50;13.10;;;5.80;99.90;;;;;;5024976;28;20505;-63
2020/12/04 15:00:13;;;;;;;27.73;14.07;;;5.80;99.90;;;;;;5025924;28;20461;-63
2020/12/04 15:02:41;;;;;;;25.47;14.33;;;5.80;99.90;;;;;;5026176;28;20446;-62
2020/12/04 15:05:09;;;;;;;28.13;12.63;;;5.80;99.90;;;;;;5027305;28;20480;-63
2020/12/04 15:07:37;;;;;;;22.00;12.37;;;5.70;99.90;;;;;;5027087;28;20492;-63
2020/12/04 15:10:06;;;;;;;20.60;13.13;;;5.70;99.90;;;;;;5026833;28;20453;-62
2020/12/04 15:12:33;;;;;;;22.90;14.30;;;5.70;99.90;;;;;;5026321;28;20543;-62
2020/12/04 15:15:00;;;;;;;24.63;13.57;;;5.70;99.90;;;;;;5027784;28;20484;-62
2020/12/04 15:17:27;;;;;;;22.50;13.27;;;5.70;99.90;;;;;;5027778;28;20445;-61
2020/12/04 15:19:54;;;;;;;26.40;15.07;;;5.70;99.90;;;;;;5026438;28;20448;-63
2020/12/04 15:22:21;;;;;;;25.47;13.90;;;5.60;99.90;;;;;;5024752;28;20450;-62
2020/12/04 15:24:49;;;;;;;22.40;13.80;;;5.60;99.90;;;;;;5025315;28;20453;-63
2020/12/04 15:27:22;;;;;;;24.73;13.90;;;5.60;99.90;;;;;;5026017;28;20545;-63
2020/12/04 15:29:49;;;;;;;26.57;15.67;;;5.60;99.90;;;;;;5026721;28;20456;-62
2020/12/04 15:32:15;;;;;;;24.33;14.50;;;5.60;99.90;;;;;;5026385;28;20961;-62
2020/12/04 15:34:42;;;;;;;26.10;14.27;;;5.60;99.90;;;;;;5026998;28;20481;-62
2020/12/04 15:37:10;;;;;;;22.43;14.20;;;5.50;99.90;;;;;;5027107;28;20504;-62
2020/12/04 15:39:37;;;;;;;34.50;16.63;;;5.50;99.90;;;;;;5025838;28;20493;-63
2020/12/04 15:42:06;;;;;;;21.80;13.70;;;5.50;99.90;;;;;;5024970;28;20449;-63
2020/12/04 15:44:34;;;;;;;22.43;14.20;;;5.50;99.90;;;;;;5025594;28;20464;-63
2020/12/04 15:47:01;;;;;;;28.73;15.10;;;5.50;99.90;;;;;;5025890;28;20469;-63
2020/12/04 15:49:29;;;;;;;27.30;14.40;;;5.50;99.90;;;;;;5026787;28;20972;-62
2020/12/04 15:51:58;;;;;;;26.83;15.13;;;5.50;99.90;;;;;;5026539;28;20544;-62
2020/12/04 15:54:24;;;;;;;24.87;16.70;;;5.40;99.90;;;;;;5027470;28;20441;-62
2020/12/04 15:56:52;;;;;;;30.27;15.77;;;5.40;99.90;;;;;;5027051;28;20445;-62
2020/12/04 15:59:20;;;;;;;22.57;14.07;;;5.50;99.90;;;;;;5024225;28;20468;-62
2020/12/04 16:01:47;;;;;;;27.60;14.07;;;5.50;99.90;;;;;;5026358;28;20459;-62
2020/12/04 16:04:15;;;;;;;29.80;14.53;;;5.50;99.90;;;;;;5026975;28;20445;-62
2020/12/04 16:06:42;;;;;;;30.00;16.80;;;5.50;99.90;;;;;;5026756;28;20543;-62
2020/12/04 16:09:10;;;;;;;29.30;17.13;;;5.50;99.90;;;;;;5025849;28;20469;-63
2020/12/04 16:11:41;;;;;;;30.33;17.17;;;5.50;99.90;;;;;;5026003;28;20452;-62
2020/12/04 16:14:08;;;;;;;26.07;16.30;;;5.40;99.90;;;;;;5026869;28;20457;-62
2020/12/04 16:16:37;;;;;;;30.20;18.30;;;5.40;99.90;;;;;;5027266;28;20445;-62
2020/12/04 16:19:04;;;;;;;29.93;15.40;;;5.40;99.90;;;;;;5026647;28;20459;-62
2020/12/04 16:21:31;;;;;;;22.67;14.20;;;5.40;99.90;;;;;;5027103;28;20449;-62
2020/12/04 16:23:57;;;;;;;26.50;16.10;;;5.30;99.90;;;;;;5026298;28;20524;-62
2020/12/04 16:26:24;;;;;;;32.40;18.17;;;5.30;99.90;;;;;;5022543;28;20509;-63
2020/12/04 16:28:51;;;;;;;32.10;16.67;;;5.30;99.90;;;;;;5026517;28;20453;-62
2020/12/04 16:31:19;;;;;;;25.40;15.23;;;5.20;99.90;;;;;;5025215;28;20457;-62
2020/12/04 16:33:50;;;;;;;24.07;15.10;;;5.20;99.90;;;;;;5024736;28;20433;-60
2020/12/04 16:36:17;;;;;;;29.03;16.10;;;5.20;99.90;;;;;;5026403;28;20453;-62
2020/12/04 16:38:44;;;;;;;31.93;15.73;;;5.20;99.90;;;;;;5026021;28;20500;-62
2020/12/04 16:41:11;;;;;;;27.03;15.50;;;5.20;99.90;;;;;;5025563;28;20445;-62
2020/12/04 16:43:38;;;;;;;24.13;16.40;;;5.10;99.90;;;;;;5026132;28;20476;-62
2020/12/04 16:46:05;;;;;;;27.43;15.90;;;5.10;99.90;;;;;;5026316;28;20457;-62
2020/12/04 16:48:31;;;;;;;21.73;13.40;;;5.10;99.90;;;;;;5026150;28;20453;-62
2020/12/04 16:50:59;;;;;;;41.60;25.40;;;5.10;99.90;;;;;;5027214;28;20439;-62
2020/12/04 16:53:26;;;;;;;39.50;22.20;;;5.10;99.90;;;;;;5026612;28;20457;-62
2020/12/04 16:55:53;;;;;;;27.13;17.53;;;5.10;99.90;;;;;;5026170;28;20441;-62
2020/12/04 16:58:19;;;;;;;30.57;16.97;;;5.10;99.90;;;;;;5026925;28;20434;-62
2020/12/04 17:00:46;;;;;;;26.17;16.00;;;5.10;99.90;;;;;;5027490;28;20918;-62
2020/12/04 17:03:12;;;;;;;25.20;15.90;;;5.10;99.90;;;;;;5026862;28;20461;-62
2020/12/04 17:05:39;;;;;;;31.10;17.30;;;5.00;99.90;;;;;;5028102;28;20445;-62
2020/12/04 17:08:06;;;;;;;30.83;18.23;;;5.00;99.90;;;;;;5028455;28;20488;-62
2020/12/04 17:10:33;;;;;;;27.97;16.97;;;5.00;99.90;;;;;;5028900;28;20468;-62
2020/12/04 17:13:00;;;;;;;27.83;16.70;;;4.90;99.90;;;;;;5027202;28;20444;-62
2020/12/04 17:15:26;;;;;;;34.43;19.10;;;4.80;99.90;;;;;;5028720;28;20468;-62
2020/12/04 17:17:53;;;;;;;27.27;16.87;;;4.80;99.90;;;;;;5028765;28;20433;-62
2020/12/04 17:20:19;;;;;;;34.00;17.27;;;4.70;99.90;;;;;;5029330;28;20513;-62
2020/12/04 17:22:49;;;;;;;31.30;19.37;;;4.60;99.90;;;;;;5028851;28;20460;-63
2020/12/04 17:25:17;;;;;;;28.53;17.90;;;4.60;99.90;;;;;;5031037;28;20444;-62
2020/12/04 17:27:43;;;;;;;30.03;16.70;;;4.50;99.90;;;;;;5029986;28;20492;-62
2020/12/04 17:30:10;;;;;;;27.90;18.57;;;4.40;99.90;;;;;;5030322;28;20529;-62
2020/12/04 17:32:36;;;;;;;38.10;18.27;;;4.30;99.90;;;;;;5028993;28;20449;-62
2020/12/04 17:35:03;;;;;;;34.47;18.20;;;4.20;99.90;;;;;;5026009;28;20541;-62
2020/12/04 17:37:30;;;;;;;26.77;16.57;;;4.20;99.90;;;;;;5030246;28;20540;-62
2020/12/04 17:39:57;;;;;;;31.03;18.13;;;4.20;99.90;;;;;;5031245;28;20483;-62
2020/12/04 17:42:24;;;;;;;29.80;17.63;;;4.20;99.90;;;;;;5028973;28;20441;-62
2020/12/04 17:44:51;;;;;;;26.17;16.97;;;4.20;99.90;;;;;;5031114;28;20465;-62
2020/12/04 17:47:18;;;;;;;26.33;17.50;;;4.20;99.90;;;;;;5034725;28;20481;-62
2020/12/04 17:49:44;;;;;;;35.77;19.17;;;4.20;99.90;;;;;;5033914;28;20433;-62
2020/12/04 17:52:11;;;;;;;30.47;18.90;;;4.20;99.90;;;;;;5033333;28;20484;-63
2020/12/04 17:54:38;;;;;;;34.27;19.90;;;4.10;99.90;;;;;;5032206;28;20441;-62
2020/12/04 17:57:05;;;;;;;36.00;19.70;;;4.10;99.90;;;;;;5032013;28;20433;-62
2020/12/04 17:59:32;;;;;;;30.47;20.43;;;4.20;99.90;;;;;;5031558;28;20520;-63
2020/12/04 18:01:59;;;;;;;37.03;20.10;;;4.20;99.90;;;;;;5032212;28;20459;-63
2020/12/04 18:04:26;;;;;;;31.00;19.40;;;4.10;99.90;;;;;;5034399;28;20930;-63
2020/12/04 18:06:52;;;;;;;36.07;19.20;;;4.10;99.90;;;;;;5033312;28;20477;-63
2020/12/04 18:09:19;;;;;;;32.00;18.23;;;4.10;99.90;;;;;;5034137;28;20452;-62
2020/12/04 18:11:46;;;;;;;35.23;18.07;;;4.10;99.90;;;;;;5033181;28;20445;-63
2020/12/04 18:14:12;;;;;;;36.10;19.93;;;4.10;99.90;;;;;;5034143;28;20446;-62
2020/12/04 18:16:40;;;;;;;33.93;19.60;;;4.10;99.90;;;;;;5033569;28;20469;-62
2020/12/04 18:19:07;;;;;;;32.00;17.60;;;4.00;99.90;;;;;;5032961;28;20460;-62
2020/12/04 18:21:33;;;;;;;33.13;19.20;;;4.00;99.90;;;;;;5032690;28;20536;-63
2020/12/04 18:24:00;;;;;;;29.80;19.27;;;4.00;99.90;;;;;;5034192;28;20448;-63
2020/12/04 18:26:26;;;;;;;28.50;17.00;;;4.00;99.90;;;;;;5034018;28;20505;-63
2020/12/04 18:28:53;;;;;;;28.67;17.83;;;4.00;99.90;;;;;;5033793;28;20472;-63
2020/12/04 18:31:19;;;;;;;30.93;16.80;;;4.00;99.90;;;;;;5032191;28;20453;-62
2020/12/04 18:33:46;;;;;;;28.40;16.00;;;4.00;99.90;;;;;;5028384;28;20441;-59
2020/12/04 18:36:14;;;;;;;31.13;18.90;;;4.00;99.90;;;;;;5032993;28;20517;-62
2020/12/04 18:38:41;;;;;;;30.00;19.13;;;4.00;99.90;;;;;;5034491;28;20464;-63
2020/12/04 18:41:07;;;;;;;27.97;17.33;;;4.10;99.90;;;;;;5033914;28;20445;-62
2020/12/04 18:43:34;;;;;;;31.70;18.20;;;4.10;99.90;;;;;;5033928;28;20456;-62
2020/12/04 18:46:00;;;;;;;28.83;17.20;;;4.10;99.90;;;;;;5034225;28;20468;-63
2020/12/04 18:48:27;;;;;;;31.10;17.80;;;4.10;99.90;;;;;;5033232;28;20527;-62
2020/12/04 18:50:54;;;;;;;27.97;17.77;;;4.10;99.90;;;;;;5033234;28;20433;-62
2020/12/04 18:53:21;;;;;;;34.20;19.17;;;4.10;99.90;;;;;;5032606;28;20533;-62
2020/12/04 18:55:48;;;;;;;29.07;16.20;;;4.10;99.90;;;;;;5033860;28;20472;-62
2020/12/04 18:58:14;;;;;;;33.03;17.07;;;4.20;99.90;;;;;;5032726;28;20468;-62
2020/12/04 19:00:41;;;;;;;30.27;17.90;;;4.10;99.90;;;;;;5032846;28;20472;-62
2020/12/04 19:03:07;;;;;;;33.10;18.70;;;4.20;99.90;;;;;;5032886;28;20453;-63
2020/12/04 19:05:34;;;;;;;28.20;17.23;;;4.20;99.90;;;;;;5032962;28;20445;-61
2020/12/04 19:08:01;;;;;;;28.20;16.90;;;4.20;99.90;;;;;;5031926;28;20496;-62
2020/12/04 19:10:28;;;;;;;29.00;17.30;;;4.20;99.90;;;;;;5032954;28;20453;-62
2020/12/04 19:12:55;;;;;;;29.70;19.33;;;4.20;99.90;;;;;;5031563;28;20441;-63
2020/12/04 19:15:22;;;;;;;24.37;16.03;;;4.20;99.90;;;;;;5031368;28;20471;-62
2020/12/04 19:17:49;;;;;;;27.53;18.40;;;4.20;99.90;;;;;;5031421;28;20452;-62
2020/12/04 19:20:16;;;;;;;32.03;18.27;;;4.20;99.90;;;;;;5031873;28;20510;-62
2020/12/04 19:22:42;;;;;;;29.57;16.70;;;4.20;99.90;;;;;;5030819;28;20461;-62
2020/12/04 19:25:10;;;;;;;28.73;18.30;;;4.20;99.90;;;;;;5031476;28;20452;-63
2020/12/04 19:27:37;;;;;;;30.83;20.33;;;4.20;99.90;;;;;;5030754;28;20556;-62
2020/12/04 19:30:04;;;;;;;30.40;22.13;;;4.20;99.90;;;;;;5030933;28;20457;-62
2020/12/04 19:32:30;;;;;;;33.27;18.00;;;4.20;99.90;;;;;;5030557;28;20457;-62
2020/12/04 19:34:57;;;;;;;31.80;18.70;;;4.20;99.90;;;;;;5031363;28;20465;-62
2020/12/04 19:37:24;;;;;;;25.50;16.97;;;4.20;99.90;;;;;;5032339;28;20469;-62
2020/12/04 19:39:51;;;;;;;27.23;18.07;;;4.20;99.90;;;;;;5032742;28;20540;-62
2020/12/04 19:42:18;;;;;;;28.00;19.33;;;4.20;99.90;;;;;;5030612;28;20532;-63
2020/12/04 19:44:45;;;;;;;28.33;17.03;;;4.20;99.90;;;;;;5031465;28;20449;-62
2020/12/04 19:47:12;;;;;;;26.67;17.43;;;4.20;99.90;;;;;;5032221;28;20489;-62
2020/12/04 19:49:39;;;;;;;29.03;17.93;;;4.20;99.90;;;;;;5031603;28;20445;-62
2020/12/04 19:52:07;;;;;;;25.80;17.50;;;4.20;99.90;;;;;;5031818;28;20483;-61